createdAt,value
2023-05-18T00:01:25.535Z,4.87
2023-05-18T00:03:54.217Z,5.30
2023-05-18T00:06:22.486Z,3.87
2023-05-18T00:08:49.260Z,3.40
2023-05-18T00:11:16.223Z,4.13
2023-05-18T00:13:43.288Z,6.90
2023-05-18T00:16:12.017Z,7.97
2023-05-18T00:18:38.727Z,3.33
2023-05-18T00:21:06.374Z,4.23
2023-05-18T00:23:33.246Z,3.50
2023-05-18T00:26:01.430Z,3.67
2023-05-18T00:28:29.390Z,4.13
2023-05-18T00:30:56.872Z,3.43
2023-05-18T00:33:23.734Z,3.70
2023-05-18T00:35:50.602Z,3.20
2023-05-18T00:38:17.916Z,2.93
2023-05-18T00:40:44.773Z,3.17
2023-05-18T00:43:12.483Z,3.07
2023-05-18T00:45:39.957Z,3.27
2023-05-18T00:48:07.312Z,3.53
2023-05-18T00:50:34.908Z,3.17
2023-05-18T00:53:01.795Z,3.73
2023-05-18T00:55:29.174Z,3.00
2023-05-18T00:58:02.391Z,4.87
2023-05-18T01:00:29.605Z,3.20
2023-05-18T01:02:57.330Z,3.07
2023-05-18T01:05:24.341Z,3.00
2023-05-18T01:07:51.304Z,2.70
2023-05-18T01:10:20.644Z,2.57
2023-05-18T01:12:57.297Z,3.47
2023-05-18T01:15:34.832Z,3.13
2023-05-18T01:18:05.349Z,2.83
2023-05-18T01:20:45.975Z,3.20
2023-05-18T01:23:45.580Z,3.97
2023-05-18T01:26:17.097Z,2.87
2023-05-18T01:28:46.768Z,3.20
2023-05-18T01:31:16.264Z,4.60
2023-05-18T01:33:44.470Z,3.07
2023-05-18T01:36:11.575Z,3.43
2023-05-18T01:38:41.050Z,3.00
2023-05-18T01:41:18.156Z,2.70
2023-05-18T01:44:18.525Z,2.83
2023-05-18T01:46:54.735Z,2.67
2023-05-18T01:49:24.511Z,3.40
2023-05-18T01:51:53.401Z,3.33
2023-05-18T01:54:22.775Z,2.70
2023-05-18T01:56:52.097Z,3.00
2023-05-18T01:59:19.076Z,2.43
2023-05-18T02:01:45.893Z,3.20
2023-05-18T02:04:12.786Z,2.80
2023-05-18T02:06:39.758Z,3.70
2023-05-18T02:09:09.009Z,3.00
2023-05-18T02:11:35.893Z,3.00
2023-05-18T02:14:02.944Z,2.40
2023-05-18T02:16:29.787Z,2.93
2023-05-18T02:18:58.113Z,3.30
2023-05-18T02:21:25.968Z,2.93
2023-05-18T02:23:52.700Z,3.10
2023-05-18T02:26:19.474Z,2.60
2023-05-18T02:28:53.032Z,2.57
2023-05-18T02:31:19.918Z,3.43
2023-05-18T02:33:46.693Z,2.70
2023-05-18T02:36:14.386Z,2.97
2023-05-18T02:38:43.841Z,3.10
2023-05-18T02:41:12.082Z,2.57
2023-05-18T02:43:39.019Z,2.77
2023-05-18T02:46:07.557Z,3.80
2023-05-18T02:48:34.525Z,2.73
2023-05-18T02:51:01.263Z,3.00
2023-05-18T02:53:27.982Z,3.30
2023-05-18T02:56:03.287Z,3.10
2023-05-18T02:58:39.134Z,3.83
2023-05-18T03:01:39.986Z,3.73
2023-05-18T03:04:07.347Z,2.80
2023-05-18T03:06:38.340Z,3.10
2023-05-18T03:09:05.200Z,3.87
2023-05-18T03:11:36.687Z,2.83
2023-05-18T03:14:03.704Z,3.30
2023-05-18T03:16:30.533Z,3.10
2023-05-18T03:19:02.297Z,2.87
2023-05-18T03:21:36.110Z,2.80
2023-05-18T03:24:03.594Z,2.67
2023-05-18T03:26:32.067Z,2.97
2023-05-18T03:28:59.556Z,2.77
2023-05-18T03:31:27.127Z,2.60
2023-05-18T03:33:56.257Z,2.63
2023-05-18T03:36:25.336Z,2.97
2023-05-18T03:38:52.833Z,3.20
2023-05-18T03:41:19.973Z,3.00
2023-05-18T03:43:46.729Z,2.40
2023-05-18T03:46:13.697Z,2.60
2023-05-18T03:48:40.685Z,3.07
2023-05-18T03:51:07.763Z,2.77
2023-05-18T03:53:36.237Z,2.77
2023-05-18T03:56:03.104Z,2.53
2023-05-18T03:58:30.128Z,2.90
2023-05-18T04:00:58.938Z,3.50
2023-05-18T04:03:27.090Z,2.73
2023-05-18T04:05:55.666Z,3.13
2023-05-18T04:08:25.461Z,2.70
2023-05-18T04:10:52.553Z,2.63
2023-05-18T04:13:19.256Z,3.03
2023-05-18T04:15:46.001Z,2.93
2023-05-18T04:18:13.683Z,2.50
2023-05-18T04:20:42.609Z,3.17
2023-05-18T04:23:10.111Z,2.70
2023-05-18T04:25:39.300Z,2.87
2023-05-18T04:28:07.272Z,2.63
2023-05-18T04:30:35.405Z,3.27
2023-05-18T04:33:04.116Z,3.00
2023-05-18T04:35:31.982Z,2.70
2023-05-18T04:37:58.945Z,2.93
2023-05-18T04:40:25.897Z,2.67
2023-05-18T04:42:52.950Z,2.40
2023-05-18T04:45:26.101Z,3.20
2023-05-18T04:47:54.760Z,2.37
2023-05-18T04:50:26.251Z,3.00
2023-05-18T04:52:53.997Z,2.30
2023-05-18T04:55:27.491Z,2.97
2023-05-18T04:58:03.107Z,2.63
2023-05-18T05:00:30.995Z,2.70
2023-05-18T05:02:59.355Z,3.03
2023-05-18T05:05:28.567Z,2.40
2023-05-18T05:07:57.492Z,2.77
2023-05-18T05:10:25.508Z,2.50
2023-05-18T05:12:52.677Z,2.70
2023-05-18T05:15:20.398Z,2.97
2023-05-18T05:17:49.888Z,3.00
2023-05-18T05:20:17.237Z,2.70
2023-05-18T05:22:44.119Z,2.40
2023-05-18T05:25:13.129Z,2.77
2023-05-18T05:27:39.824Z,2.97
2023-05-18T05:30:07.430Z,2.63
2023-05-18T05:32:36.716Z,2.43
2023-05-18T05:35:05.362Z,2.30
2023-05-18T05:37:32.675Z,2.50
2023-05-18T05:39:59.507Z,3.20
2023-05-18T05:42:27.375Z,2.50
2023-05-18T05:44:54.133Z,2.70
2023-05-18T05:47:21.537Z,2.80
2023-05-18T05:49:49.379Z,2.83
2023-05-18T05:52:16.692Z,2.57
2023-05-18T05:54:43.549Z,2.53
2023-05-18T05:57:11.435Z,2.50
2023-05-18T05:59:38.394Z,2.30
2023-05-18T06:02:05.630Z,3.17
2023-05-18T06:04:33.103Z,2.70
2023-05-18T06:07:00.823Z,2.50
2023-05-18T06:09:28.932Z,2.60
2023-05-18T06:11:56.595Z,2.07
2023-05-18T06:14:25.013Z,2.40
2023-05-18T06:16:53.435Z,2.57
2023-05-18T06:19:20.388Z,2.20
2023-05-18T06:21:47.244Z,2.50
2023-05-18T06:24:14.386Z,2.13
2023-05-18T06:26:53.646Z,1.90
2023-05-18T06:29:36.428Z,2.53
2023-05-18T06:32:13.597Z,2.30
2023-05-18T06:34:45.719Z,2.53
2023-05-18T06:37:12.994Z,2.03
2023-05-18T06:39:40.308Z,2.20
2023-05-18T06:42:07.551Z,2.30
2023-05-18T06:44:35.870Z,2.43
2023-05-18T06:47:07.980Z,1.90
2023-05-18T06:49:34.784Z,2.20
2023-05-18T06:52:01.475Z,2.80
2023-05-18T06:54:32.089Z,2.40
2023-05-18T06:56:59.883Z,2.17
2023-05-18T06:59:26.654Z,1.90
2023-05-18T07:01:54.181Z,2.93
2023-05-18T07:04:21.303Z,2.10
2023-05-18T07:06:48.796Z,2.10
2023-05-18T07:09:15.729Z,2.40
2023-05-18T07:11:42.685Z,2.50
2023-05-18T07:14:09.864Z,2.30
2023-05-18T07:16:37.065Z,3.30
2023-05-18T07:19:04.954Z,2.40
2023-05-18T07:21:31.924Z,2.23
2023-05-18T07:23:58.986Z,3.73
2023-05-18T07:26:26.154Z,2.63
2023-05-18T07:28:53.019Z,3.13
2023-05-18T07:31:21.757Z,3.90
2023-05-18T07:33:49.824Z,3.13
2023-05-18T07:36:16.914Z,2.70
2023-05-18T07:38:44.114Z,2.80
2023-05-18T07:41:11.006Z,17.90
2023-05-18T07:43:38.001Z,3.20
2023-05-18T07:46:04.810Z,2.30
2023-05-18T07:48:31.576Z,3.70
2023-05-18T07:50:58.440Z,5.40
2023-05-18T07:53:25.239Z,37.50
2023-05-18T07:55:53.076Z,54.00
2023-05-18T07:58:19.955Z,9.27
2023-05-18T08:00:46.803Z,3.70
2023-05-18T08:03:13.687Z,8.67
2023-05-18T08:05:40.753Z,5.83
2023-05-18T08:08:08.180Z,10.13
2023-05-18T08:10:35.025Z,25.77
2023-05-18T08:13:01.887Z,8.87
2023-05-18T08:15:29.189Z,8.10
2023-05-18T08:17:57.102Z,2.70
2023-05-18T08:20:26.185Z,14.77
2023-05-18T08:22:52.962Z,4.20
2023-05-18T08:25:19.870Z,8.10
2023-05-18T08:27:46.651Z,2.70
2023-05-18T08:30:13.943Z,3.83
2023-05-18T08:32:40.943Z,4.43
2023-05-18T08:35:09.170Z,3.10
2023-05-18T08:37:37.251Z,3.23
2023-05-18T08:40:07.987Z,9.57
2023-05-18T08:42:49.817Z,14.37
2023-05-18T08:45:41.600Z,8.70
2023-05-18T08:48:11.497Z,5.03
2023-05-18T08:50:41.762Z,11.07
2023-05-18T08:53:10.673Z,6.33
2023-05-18T08:55:37.928Z,2.60
2023-05-18T08:58:09.182Z,2.50
2023-05-18T09:00:36.925Z,3.20
2023-05-18T09:03:05.311Z,2.90
2023-05-18T09:05:32.549Z,2.93
2023-05-18T09:08:00.536Z,2.87
2023-05-18T09:10:28.048Z,3.47
2023-05-18T09:12:56.202Z,2.50
2023-05-18T09:15:25.289Z,3.97
2023-05-18T09:17:52.493Z,2.80
2023-05-18T09:20:19.953Z,5.90
2023-05-18T09:22:49.374Z,3.27
2023-05-18T09:25:17.662Z,6.60
2023-05-18T09:27:44.457Z,10.47
2023-05-18T09:30:11.973Z,7.30
2023-05-18T09:32:39.164Z,6.47
2023-05-18T09:35:07.543Z,11.47
2023-05-18T09:37:35.286Z,5.00
2023-05-18T09:40:05.345Z,9.67
2023-05-18T09:42:44.095Z,7.60
2023-05-18T09:45:25.586Z,11.73
2023-05-18T09:47:53.628Z,4.07
2023-05-18T09:50:21.244Z,13.30
2023-05-18T09:52:49.314Z,4.10
2023-05-18T09:55:17.525Z,2.83
2023-05-18T09:57:46.425Z,2.47
2023-05-18T10:00:19.165Z,4.13
2023-05-18T10:02:52.640Z,2.47
2023-05-18T10:05:20.573Z,3.43
2023-05-18T10:07:48.441Z,4.07
2023-05-18T10:10:19.541Z,2.93
2023-05-18T10:12:47.980Z,2.23
2023-05-18T10:15:16.329Z,2.90
2023-05-18T10:17:45.223Z,2.73
2023-05-18T10:20:15.893Z,2.23
2023-05-18T10:22:46.017Z,2.80
2023-05-18T10:25:22.619Z,3.00
2023-05-18T10:27:55.493Z,2.40
2023-05-18T10:30:22.982Z,2.13
2023-05-18T10:32:51.351Z,2.40
2023-05-18T10:35:18.781Z,2.50
2023-05-18T10:37:50.122Z,2.37
2023-05-18T10:40:17.649Z,2.83
2023-05-18T10:42:46.306Z,2.07
2023-05-18T10:45:15.596Z,2.90
2023-05-18T10:47:44.171Z,2.13
2023-05-18T10:50:11.677Z,5.57
2023-05-18T10:52:38.442Z,13.80
2023-05-18T10:55:06.844Z,3.83
2023-05-18T10:57:40.771Z,5.37
2023-05-18T11:00:09.394Z,57.77
2023-05-18T11:02:42.201Z,5.57
2023-05-18T11:05:12.437Z,13.67
2023-05-18T11:07:39.261Z,6.18
2023-05-18T11:10:12.415Z,19.83
2023-05-18T11:12:40.784Z,7.63
2023-05-18T11:15:08.260Z,4.20
2023-05-18T11:17:34.938Z,9.00
2023-05-18T11:20:07.871Z,2.70
2023-05-18T11:22:56.756Z,2.73
2023-05-18T11:25:26.156Z,2.90
2023-05-18T11:27:53.880Z,3.30
2023-05-18T11:30:44.961Z,2.47
2023-05-18T11:33:14.485Z,2.13
2023-05-18T11:36:04.553Z,2.50
2023-05-18T11:38:55.147Z,1.57
2023-05-18T11:41:35.254Z,3.07
2023-05-18T11:44:16.837Z,2.30
2023-05-18T11:46:56.076Z,2.20
2023-05-18T11:49:28.429Z,2.50
2023-05-18T11:52:18.665Z,2.60
2023-05-18T11:54:56.398Z,1.70
2023-05-18T11:57:34.807Z,2.07
2023-05-18T12:00:10.228Z,2.23
2023-05-18T12:02:43.827Z,2.43
2023-05-18T12:05:10.793Z,2.60
2023-05-18T12:07:39.235Z,2.20
2023-05-18T12:10:10.955Z,2.30
2023-05-18T12:12:38.140Z,2.50
2023-05-18T12:15:06.863Z,2.90
2023-05-18T12:17:43.106Z,2.37
2023-05-18T12:20:14.568Z,2.40
2023-05-18T12:22:45.201Z,2.83
2023-05-18T12:25:12.039Z,2.17
2023-05-18T12:27:40.681Z,2.67
2023-05-18T12:30:14.602Z,2.20
2023-05-18T12:32:57.641Z,2.30
2023-05-18T12:35:25.802Z,1.73
2023-05-18T12:37:55.925Z,2.50
2023-05-18T12:40:23.256Z,2.37
2023-05-18T12:42:56.850Z,2.80
2023-05-18T12:45:27.801Z,2.70
2023-05-18T12:47:55.508Z,2.47
2023-05-18T12:50:27.664Z,2.20
2023-05-18T12:52:56.153Z,2.40
2023-05-18T12:55:25.004Z,2.40
2023-05-18T12:58:15.864Z,2.17
2023-05-18T13:00:47.805Z,2.67
2023-05-18T13:03:16.872Z,2.30
2023-05-18T13:05:46.119Z,2.50
2023-05-18T13:08:19.112Z,2.90
2023-05-18T13:10:46.247Z,2.30
2023-05-18T13:13:16.660Z,2.17
2023-05-18T13:15:44.097Z,21.37
2023-05-18T13:18:11.779Z,3.90
2023-05-18T13:20:45.133Z,9.50
2023-05-18T13:23:14.017Z,3.83
2023-05-18T13:25:41.286Z,31.27
2023-05-18T13:28:10.560Z,78.20
2023-05-18T13:30:38.298Z,6.73
2023-05-18T13:33:08.159Z,8.60
2023-05-18T13:35:40.301Z,2.90
2023-05-18T13:38:06.844Z,5.53
2023-05-18T13:40:33.455Z,2.10
2023-05-18T13:43:00.126Z,2.43
2023-05-18T13:45:26.652Z,2.70
2023-05-18T13:47:56.900Z,2.60
2023-05-18T13:50:23.908Z,3.33
2023-05-18T13:52:50.586Z,2.90
2023-05-18T13:55:17.138Z,2.80
2023-05-18T13:57:44.971Z,2.20
2023-05-18T14:00:13.457Z,2.03
2023-05-18T14:02:41.540Z,2.38
2023-05-18T14:05:09.665Z,2.30
2023-05-18T14:07:41.488Z,2.50
2023-05-18T14:10:09.965Z,2.30
2023-05-18T14:12:37.236Z,2.60
2023-05-18T14:15:05.673Z,2.20
2023-05-18T14:17:35.521Z,2.17
2023-05-18T14:20:02.721Z,2.47
2023-05-18T14:22:30.584Z,1.90
2023-05-18T14:24:57.590Z,2.10
2023-05-18T14:27:24.182Z,2.10
2023-05-18T14:29:51.132Z,1.88
2023-05-18T14:32:20.686Z,2.00
2023-05-18T14:34:51.561Z,2.00
2023-05-18T14:37:18.866Z,1.90
2023-05-18T14:39:45.726Z,2.90
2023-05-18T14:42:12.251Z,2.60
2023-05-18T14:44:38.810Z,2.13
2023-05-18T14:47:05.728Z,2.38
2023-05-18T14:49:32.328Z,2.95
2023-05-18T14:51:58.931Z,1.85
2023-05-18T14:54:25.678Z,2.08
2023-05-18T14:56:52.342Z,2.10
2023-05-18T14:59:18.970Z,2.10
2023-05-18T15:01:45.694Z,11.70
2023-05-18T15:04:14.570Z,67.18
2023-05-18T15:06:41.439Z,22.33
2023-05-18T15:09:08.362Z,25.05
2023-05-18T15:11:34.968Z,23.67
2023-05-18T15:14:01.540Z,3.80
2023-05-18T15:16:28.249Z,2.90
2023-05-18T15:18:55.036Z,2.42
2023-05-18T15:21:21.775Z,2.35
2023-05-18T15:23:48.311Z,3.03
2023-05-18T15:26:14.957Z,2.28
2023-05-18T15:28:43.369Z,2.28
2023-05-18T15:31:09.909Z,2.03
2023-05-18T15:33:41.819Z,2.53
2023-05-18T15:36:08.852Z,2.40
2023-05-18T15:38:35.751Z,2.13
2023-05-18T15:41:02.343Z,1.83
2023-05-18T15:43:30.412Z,2.40
2023-05-18T15:45:58.108Z,3.83
2023-05-18T15:48:24.794Z,3.35
2023-05-18T15:50:51.375Z,6.53
2023-05-18T15:53:17.929Z,19.50
2023-05-18T15:55:44.486Z,53.78
2023-05-18T15:58:12.940Z,144.90
2023-05-18T16:00:39.520Z,65.43
2023-05-18T16:03:06.247Z,24.98
2023-05-18T16:05:32.915Z,66.15
2023-05-18T16:07:59.729Z,109.38
2023-05-18T16:10:26.238Z,119.43
2023-05-18T16:12:52.772Z,99.22
2023-05-18T16:15:24.154Z,126.93
2023-05-18T16:17:50.851Z,133.38
2023-05-18T16:20:18.459Z,58.95
2023-05-18T16:22:46.718Z,85.90
2023-05-18T16:25:13.351Z,11.20
2023-05-18T16:27:39.918Z,45.67
2023-05-18T16:30:07.253Z,14.45
2023-05-18T16:32:33.853Z,31.02
2023-05-18T16:35:01.027Z,52.70
2023-05-18T16:37:27.977Z,26.00
2023-05-18T16:39:54.587Z,13.77
2023-05-18T16:42:22.775Z,3.13
2023-05-18T16:44:49.355Z,3.22
2023-05-18T16:47:16.058Z,3.78
2023-05-18T16:49:45.266Z,3.88
2023-05-18T16:52:11.861Z,2.97
2023-05-18T16:54:38.426Z,2.67
2023-05-18T16:57:05.216Z,2.33
2023-05-18T16:59:34.221Z,3.00
2023-05-18T17:02:01.431Z,2.40
2023-05-18T17:04:28.119Z,2.88
2023-05-18T17:06:54.771Z,2.38
2023-05-18T17:09:21.310Z,3.67
2023-05-18T17:11:48.381Z,3.20
2023-05-18T17:14:15.084Z,3.63
2023-05-18T17:16:41.701Z,2.75
2023-05-18T17:19:08.364Z,2.70
2023-05-18T17:21:35.058Z,2.72
2023-05-18T17:24:01.628Z,3.25
2023-05-18T17:26:30.606Z,2.78
2023-05-18T17:28:57.374Z,3.17
2023-05-18T17:31:24.077Z,2.42
2023-05-18T17:33:50.841Z,2.42
2023-05-18T17:36:18.309Z,2.80
2023-05-18T17:38:45.163Z,3.08
2023-05-18T17:41:11.943Z,2.42
2023-05-18T17:43:38.670Z,2.90
2023-05-18T17:46:05.391Z,2.40
2023-05-18T17:48:31.998Z,2.15
2023-05-18T17:50:58.807Z,3.78
2023-05-18T17:53:25.307Z,2.80
2023-05-18T17:55:52.649Z,2.55
2023-05-18T17:58:19.692Z,3.08
2023-05-18T18:00:46.371Z,2.83
2023-05-18T18:03:13.317Z,2.72
2023-05-18T18:05:40.242Z,3.35
2023-05-18T18:08:07.122Z,3.13
2023-05-18T18:10:34.682Z,2.92
2023-05-18T18:13:03.315Z,2.58
2023-05-18T18:15:30.096Z,2.92
2023-05-18T18:18:00.356Z,2.57
2023-05-18T18:20:27.260Z,2.97
2023-05-18T18:22:53.980Z,2.80
2023-05-18T18:25:20.741Z,2.40
2023-05-18T18:27:47.448Z,2.88
2023-05-18T18:30:14.773Z,2.65
2023-05-18T18:32:41.537Z,3.63
2023-05-18T18:35:09.029Z,2.60
2023-05-18T18:37:36.132Z,3.47
2023-05-18T18:40:03.012Z,3.15
2023-05-18T18:42:30.913Z,3.60
2023-05-18T18:44:57.696Z,2.77
2023-05-18T18:47:25.023Z,3.83
2023-05-18T18:49:51.810Z,2.90
2023-05-18T18:52:18.555Z,2.90
2023-05-18T18:54:45.366Z,3.43
2023-05-18T18:57:12.329Z,2.70
2023-05-18T18:59:39.373Z,3.07
2023-05-18T19:02:06.361Z,3.30
2023-05-18T19:04:33.253Z,3.20
2023-05-18T19:07:02.918Z,2.38
2023-05-18T19:09:32.676Z,3.10
2023-05-18T19:11:59.456Z,2.77
2023-05-18T19:14:26.474Z,3.07
2023-05-18T19:16:53.686Z,3.07
2023-05-18T19:19:20.481Z,3.17
2023-05-18T19:21:47.200Z,2.70
2023-05-18T19:24:13.980Z,3.07
2023-05-18T19:26:40.722Z,2.90
2023-05-18T19:29:07.389Z,2.30
2023-05-18T19:31:35.756Z,2.77
2023-05-18T19:34:02.770Z,2.70
2023-05-18T19:36:29.517Z,3.00
2023-05-18T19:38:56.281Z,2.97
2023-05-18T19:41:24.622Z,2.70
2023-05-18T19:43:51.692Z,3.07
2023-05-18T19:46:19.158Z,2.77
2023-05-18T19:48:46.652Z,2.70
2023-05-18T19:51:13.329Z,3.10
2023-05-18T19:53:40.279Z,2.80
2023-05-18T19:56:06.977Z,2.70
2023-05-18T19:58:33.727Z,2.63
2023-05-18T20:01:00.622Z,2.57
2023-05-18T20:03:27.623Z,3.53
2023-05-18T20:05:56.048Z,3.07
2023-05-18T20:08:22.888Z,3.00
2023-05-18T20:10:49.822Z,3.43
2023-05-18T20:13:16.632Z,3.63
2023-05-18T20:15:43.756Z,3.63
2023-05-18T20:18:10.751Z,3.97
2023-05-18T20:20:37.645Z,3.30
2023-05-18T20:23:06.737Z,2.60
2023-05-18T20:25:35.191Z,4.30
2023-05-18T20:28:03.531Z,3.00
2023-05-18T20:30:30.706Z,2.73
2023-05-18T20:33:03.656Z,2.80
2023-05-18T20:35:30.564Z,2.70
2023-05-18T20:37:59.649Z,3.03
2023-05-18T20:40:27.803Z,6.40
2023-05-18T20:42:54.542Z,4.33
2023-05-18T20:45:22.706Z,5.53
2023-05-18T20:47:52.867Z,4.27
2023-05-18T20:50:21.121Z,4.77
2023-05-18T20:52:47.963Z,7.70
2023-05-18T20:55:14.914Z,7.07
2023-05-18T20:57:46.131Z,6.97
2023-05-18T21:00:13.300Z,11.60
2023-05-18T21:02:41.574Z,8.00
2023-05-18T21:05:08.853Z,6.50
2023-05-18T21:07:37.827Z,5.03
2023-05-18T21:10:05.101Z,4.77
2023-05-18T21:12:32.618Z,4.83
2023-05-18T21:14:59.385Z,6.77
2023-05-18T21:17:26.280Z,4.97
2023-05-18T21:19:53.150Z,4.63
2023-05-18T21:22:19.962Z,6.33
2023-05-18T21:24:46.624Z,6.20
2023-05-18T21:27:13.444Z,7.80
2023-05-18T21:29:40.217Z,12.10
2023-05-18T21:32:07.172Z,14.67
2023-05-18T21:34:33.964Z,7.40
2023-05-18T21:37:01.193Z,7.90
2023-05-18T21:39:27.934Z,9.20
2023-05-18T21:41:54.779Z,10.43
2023-05-18T21:44:21.473Z,9.13
2023-05-18T21:46:48.354Z,5.47
2023-05-18T21:49:15.032Z,6.40
2023-05-18T21:51:41.678Z,6.90
2023-05-18T21:54:08.457Z,4.40
2023-05-18T21:56:36.696Z,5.33
2023-05-18T21:59:03.512Z,7.30
2023-05-18T22:01:30.393Z,7.47
2023-05-18T22:03:57.220Z,5.20
2023-05-18T22:06:24.050Z,3.30
2023-05-18T22:08:51.481Z,4.40
2023-05-18T22:11:18.289Z,3.23
2023-05-18T22:13:44.971Z,3.27
2023-05-18T22:16:11.959Z,3.57
2023-05-18T22:18:38.798Z,7.10
2023-05-18T22:21:05.705Z,5.50
2023-05-18T22:23:32.372Z,4.30
2023-05-18T22:25:59.052Z,2.93
2023-05-18T22:28:25.932Z,3.20
2023-05-18T22:30:52.773Z,3.37
2023-05-18T22:33:20.948Z,3.70
2023-05-18T22:35:50.662Z,2.30
2023-05-18T22:38:17.902Z,2.70
2023-05-18T22:40:45.411Z,2.10
2023-05-18T22:43:12.336Z,2.50
2023-05-18T22:45:39.165Z,3.30
2023-05-18T22:48:06.315Z,2.67
2023-05-18T22:50:33.407Z,2.07
2023-05-18T22:53:02.301Z,2.20
2023-05-18T22:55:29.110Z,2.83
2023-05-18T22:57:55.805Z,2.60
2023-05-18T23:00:22.882Z,2.57
2023-05-18T23:02:49.674Z,2.23
2023-05-18T23:05:17.169Z,3.63
2023-05-18T23:07:44.126Z,2.50
2023-05-18T23:10:12.164Z,2.50
2023-05-18T23:12:39.578Z,3.30
2023-05-18T23:15:07.413Z,2.77
2023-05-18T23:17:54.808Z,3.27
2023-05-18T23:20:22.864Z,2.70
2023-05-18T23:22:49.590Z,9.93
2023-05-18T23:25:16.522Z,35.00
2023-05-18T23:27:44.820Z,7.83
2023-05-18T23:30:11.825Z,49.83
2023-05-18T23:32:39.193Z,11.07
2023-05-18T23:35:06.590Z,4.30
2023-05-18T23:37:35.081Z,7.70
2023-05-18T23:40:04.659Z,7.23
2023-05-18T23:42:33.451Z,7.13
2023-05-18T23:45:00.735Z,2.47
2023-05-18T23:47:27.702Z,3.00
2023-05-18T23:49:54.893Z,2.87
2023-05-18T23:52:24.873Z,3.80
2023-05-18T23:54:55.501Z,3.60
2023-05-18T23:57:25.465Z,2.77
2023-05-18T23:59:52.472Z,3.93
